sensor_id;sensor_type;location;lat;lon;timestamp;noise_LAeq;noise_LA_min;noise_LA_max;noise_LA01;noise_LA95
81493;Laerm;70900;51.798;10.954;2023-09-08T00:01:03;31.93;26.54;46.30;;
81493;Laerm;70900;51.798;10.954;2023-09-08T00:03:28;29.11;25.36;37.40;;
81493;Laerm;70900;51.798;10.954;2023-09-08T00:05:53;37.71;29.55;48.48;;
81493;Laerm;70900;51.798;10.954;2023-09-08T00:08:19;50.21;25.88;65.36;;
81493;Laerm;70900;51.798;10.954;2023-09-08T00:10:44;52.33;26.22;69.79;;
81493;Laerm;70900;51.798;10.954;2023-09-08T00:13:09;29.23;25.38;35.25;;
81493;Laerm;70900;51.798;10.954;2023-09-08T00:15:35;34.18;25.72;43.53;;
81493;Laerm;70900;51.798;10.954;2023-09-08T00:18:00;38.87;28.28;49.99;;
81493;Laerm;70900;51.798;10.954;2023-09-08T00:20:26;42.52;25.78;71.87;;
81493;Laerm;70900;51.798;10.954;2023-09-08T00:22:51;27.96;25.23;38.23;;
81493;Laerm;70900;51.798;10.954;2023-09-08T00:25:16;32.31;26.08;38.92;;
81493;Laerm;70900;51.798;10.954;2023-09-08T00:27:42;35.73;25.92;45.45;;
81493;Laerm;70900;51.798;10.954;2023-09-08T00:30:07;33.54;25.87;48.66;;
81493;Laerm;70900;51.798;10.954;2023-09-08T00:32:33;29.27;25.64;33.38;;
81493;Laerm;70900;51.798;10.954;2023-09-08T00:34:58;31.47;26.09;41.76;;
81493;Laerm;70900;51.798;10.954;2023-09-08T00:37:23;34.51;26.62;44.68;;
81493;Laerm;70900;51.798;10.954;2023-09-08T00:39:49;28.36;25.11;36.75;;
81493;Laerm;70900;51.798;10.954;2023-09-08T00:42:14;28.27;25.02;42.16;;
81493;Laerm;70900;51.798;10.954;2023-09-08T00:44:40;29.31;25.40;38.28;;
81493;Laerm;70900;51.798;10.954;2023-09-08T00:47:05;30.07;24.28;44.19;;
81493;Laerm;70900;51.798;10.954;2023-09-08T00:49:31;37.72;26.35;50.90;;
81493;Laerm;70900;51.798;10.954;2023-09-08T00:51:56;31.48;25.66;41.55;;
81493;Laerm;70900;51.798;10.954;2023-09-08T00:54:21;30.57;26.82;38.89;;
81493;Laerm;70900;51.798;10.954;2023-09-08T00:56:48;36.25;28.14;50.82;;
81493;Laerm;70900;51.798;10.954;2023-09-08T00:59:14;37.02;26.11;48.91;;
81493;Laerm;70900;51.798;10.954;2023-09-08T01:01:39;28.99;25.17;39.91;;
81493;Laerm;70900;51.798;10.954;2023-09-08T01:04:21;29.32;26.10;35.44;;
81493;Laerm;70900;51.798;10.954;2023-09-08T01:07:11;30.52;26.05;38.49;;
81493;Laerm;70900;51.798;10.954;2023-09-08T01:10:03;32.13;25.57;41.92;;
81493;Laerm;70900;51.798;10.954;2023-09-08T01:18:51;31.86;27.38;42.15;;
81493;Laerm;70900;51.798;10.954;2023-09-08T01:21:46;32.08;26.44;40.25;;
81493;Laerm;70900;51.798;10.954;2023-09-08T01:27:44;35.32;29.71;43.53;;
81493;Laerm;70900;51.798;10.954;2023-09-08T01:33:57;33.39;27.60;44.83;;
81493;Laerm;70900;51.798;10.954;2023-09-08T01:36:39;31.73;27.86;39.84;;
81493;Laerm;70900;51.798;10.954;2023-09-08T01:39:25;34.36;29.81;41.55;;
81493;Laerm;70900;51.798;10.954;2023-09-08T01:42:09;37.53;31.05;48.68;;
81493;Laerm;70900;51.798;10.954;2023-09-08T01:44:59;36.97;31.29;48.33;;
81493;Laerm;70900;51.798;10.954;2023-09-08T01:47:57;32.74;27.32;42.09;;
81493;Laerm;70900;51.798;10.954;2023-09-08T01:50:50;33.00;27.57;47.43;;
81493;Laerm;70900;51.798;10.954;2023-09-08T01:54:04;52.36;28.37;71.80;;
81493;Laerm;70900;51.798;10.954;2023-09-08T01:56:45;37.50;31.29;45.92;;
81493;Laerm;70900;51.798;10.954;2023-09-08T01:59:25;36.53;31.66;43.11;;
81493;Laerm;70900;51.798;10.954;2023-09-08T02:02:17;37.04;30.34;44.62;;
81493;Laerm;70900;51.798;10.954;2023-09-08T02:05:13;34.08;28.36;42.08;;
81493;Laerm;70900;51.798;10.954;2023-09-08T02:08:09;36.68;28.85;43.41;;
81493;Laerm;70900;51.798;10.954;2023-09-08T02:11:14;35.15;30.38;43.71;;
81493;Laerm;70900;51.798;10.954;2023-09-08T02:14:03;37.44;29.92;45.32;;
81493;Laerm;70900;51.798;10.954;2023-09-08T02:16:55;41.31;27.74;51.83;;
81493;Laerm;70900;51.798;10.954;2023-09-08T02:19:44;41.12;31.04;52.84;;
81493;Laerm;70900;51.798;10.954;2023-09-08T02:22:28;38.46;30.63;47.05;;
81493;Laerm;70900;51.798;10.954;2023-09-08T02:25:20;39.39;30.39;53.57;;
81493;Laerm;70900;51.798;10.954;2023-09-08T02:31:06;40.70;33.73;49.51;;
81493;Laerm;70900;51.798;10.954;2023-09-08T02:33:55;40.99;34.87;46.80;;
81493;Laerm;70900;51.798;10.954;2023-09-08T02:36:43;36.56;32.31;46.13;;
81493;Laerm;70900;51.798;10.954;2023-09-08T02:42:30;38.11;33.78;48.11;;
81493;Laerm;70900;51.798;10.954;2023-09-08T02:45:21;37.89;34.86;52.38;;
81493;Laerm;70900;51.798;10.954;2023-09-08T02:48:25;37.26;33.73;44.42;;
81493;Laerm;70900;51.798;10.954;2023-09-08T02:51:09;51.36;33.88;68.45;;
81493;Laerm;70900;51.798;10.954;2023-09-08T02:53:57;37.47;33.56;43.98;;
81493;Laerm;70900;51.798;10.954;2023-09-08T02:56:37;38.40;36.39;41.88;;
81493;Laerm;70900;51.798;10.954;2023-09-08T02:59:33;40.01;35.34;49.68;;
81493;Laerm;70900;51.798;10.954;2023-09-08T03:02:15;39.02;36.01;45.05;;
81493;Laerm;70900;51.798;10.954;2023-09-08T03:05:09;42.53;37.28;56.17;;
81493;Laerm;70900;51.798;10.954;2023-09-08T03:08:05;43.90;35.44;56.90;;
81493;Laerm;70900;51.798;10.954;2023-09-08T03:10:55;38.29;34.59;44.66;;
81493;Laerm;70900;51.798;10.954;2023-09-08T03:16:36;39.73;36.08;48.31;;
81493;Laerm;70900;51.798;10.954;2023-09-08T03:19:27;39.29;35.90;47.33;;
81493;Laerm;70900;51.798;10.954;2023-09-08T03:22:14;43.42;34.33;52.32;;
81493;Laerm;70900;51.798;10.954;2023-09-08T03:25:21;47.35;37.74;62.24;;
81493;Laerm;70900;51.798;10.954;2023-09-08T03:28:18;41.05;37.98;53.06;;
81493;Laerm;70900;51.798;10.954;2023-09-08T03:31:24;48.15;37.00;64.51;;
81493;Laerm;70900;51.798;10.954;2023-09-08T03:39:55;49.28;37.50;66.15;;
81493;Laerm;70900;51.798;10.954;2023-09-08T03:42:47;50.02;37.73;66.12;;
81493;Laerm;70900;51.798;10.954;2023-09-08T03:48:27;47.88;38.31;64.86;;
81493;Laerm;70900;51.798;10.954;2023-09-08T03:51:21;51.49;38.17;71.02;;
81493;Laerm;70900;51.798;10.954;2023-09-08T03:54:19;54.33;38.72;69.74;;
81493;Laerm;70900;51.798;10.954;2023-09-08T03:57:15;49.36;38.29;64.44;;
81493;Laerm;70900;51.798;10.954;2023-09-08T04:03:01;50.49;37.98;64.81;;
81493;Laerm;70900;51.798;10.954;2023-09-08T04:05:54;51.11;38.23;68.11;;
81493;Laerm;70900;51.798;10.954;2023-09-08T04:08:48;50.59;41.02;65.73;;
81493;Laerm;70900;51.798;10.954;2023-09-08T04:11:33;46.91;42.25;56.33;;
81493;Laerm;70900;51.798;10.954;2023-09-08T04:14:16;46.53;40.32;53.72;;
81493;Laerm;70900;51.798;10.954;2023-09-08T04:17:08;49.77;39.90;65.16;;
81493;Laerm;70900;51.798;10.954;2023-09-08T04:23:17;51.02;44.34;64.65;;
81493;Laerm;70900;51.798;10.954;2023-09-08T04:26:06;58.43;43.88;78.22;;
81493;Laerm;70900;51.798;10.954;2023-09-08T04:31:55;52.44;42.00;64.87;;
81493;Laerm;70900;51.798;10.954;2023-09-08T04:34:44;53.68;42.15;68.53;;
81493;Laerm;70900;51.798;10.954;2023-09-08T04:37:28;52.77;41.06;66.57;;
81493;Laerm;70900;51.798;10.954;2023-09-08T04:40:12;53.90;41.90;71.21;;
81493;Laerm;70900;51.798;10.954;2023-09-08T04:43:00;53.65;41.37;67.83;;
81493;Laerm;70900;51.798;10.954;2023-09-08T04:45:52;54.20;40.89;68.45;;
81493;Laerm;70900;51.798;10.954;2023-09-08T04:48:35;55.83;42.18;69.56;;
81493;Laerm;70900;51.798;10.954;2023-09-08T04:51:29;50.74;41.85;66.33;;
81493;Laerm;70900;51.798;10.954;2023-09-08T04:54:06;59.10;43.36;75.40;;
81493;Laerm;70900;51.798;10.954;2023-09-08T04:56:59;52.81;41.81;67.23;;
81493;Laerm;70900;51.798;10.954;2023-09-08T05:00:06;56.71;41.90;69.01;;
81493;Laerm;70900;51.798;10.954;2023-09-08T05:02:42;54.66;42.30;69.46;;
81493;Laerm;70900;51.798;10.954;2023-09-08T05:05:40;52.21;42.95;69.02;;
81493;Laerm;70900;51.798;10.954;2023-09-08T05:08:23;54.73;42.24;68.65;;
81493;Laerm;70900;51.798;10.954;2023-09-08T05:11:13;56.66;41.59;67.98;;
81493;Laerm;70900;51.798;10.954;2023-09-08T05:14:03;54.90;42.43;67.74;;
81493;Laerm;70900;51.798;10.954;2023-09-08T05:16:54;55.17;39.88;67.13;;
81493;Laerm;70900;51.798;10.954;2023-09-08T05:19:35;60.80;41.90;78.07;;
81493;Laerm;70900;51.798;10.954;2023-09-08T05:22:36;57.81;43.46;69.51;;
81493;Laerm;70900;51.798;10.954;2023-09-08T05:25:12;58.39;42.76;68.97;;
81493;Laerm;70900;51.798;10.954;2023-09-08T05:28:09;60.98;42.19;73.78;;
81493;Laerm;70900;51.798;10.954;2023-09-08T05:30:47;56.36;41.12;67.69;;
81493;Laerm;70900;51.798;10.954;2023-09-08T05:33:42;57.76;41.20;72.95;;
81493;Laerm;70900;51.798;10.954;2023-09-08T05:36:48;59.45;42.45;77.18;;
81493;Laerm;70900;51.798;10.954;2023-09-08T05:39:36;56.75;40.47;66.84;;
81493;Laerm;70900;51.798;10.954;2023-09-08T05:42:18;55.14;39.95;72.93;;
81493;Laerm;70900;51.798;10.954;2023-09-08T05:45:08;55.09;42.30;69.47;;
81493;Laerm;70900;51.798;10.954;2023-09-08T05:50:53;58.61;43.50;72.60;;
81493;Laerm;70900;51.798;10.954;2023-09-08T05:56:53;54.58;41.16;65.86;;
81493;Laerm;70900;51.798;10.954;2023-09-08T05:59:47;56.02;41.83;68.60;;
81493;Laerm;70900;51.798;10.954;2023-09-08T06:02:41;53.34;41.76;63.50;;
81493;Laerm;70900;51.798;10.954;2023-09-08T06:05:43;58.97;40.13;79.50;;
81493;Laerm;70900;51.798;10.954;2023-09-08T06:08:55;59.94;39.71;78.24;;
81493;Laerm;70900;51.798;10.954;2023-09-08T06:11:41;53.39;41.55;67.65;;
81493;Laerm;70900;51.798;10.954;2023-09-08T06:14:26;56.26;40.44;68.96;;
81493;Laerm;70900;51.798;10.954;2023-09-08T06:17:18;48.77;41.63;62.24;;
81493;Laerm;70900;51.798;10.954;2023-09-08T06:20:25;55.35;42.76;68.44;;
81493;Laerm;70900;51.798;10.954;2023-09-08T06:23:30;55.04;42.42;68.52;;
81493;Laerm;70900;51.798;10.954;2023-09-08T06:26:37;62.62;43.52;79.59;;
81493;Laerm;70900;51.798;10.954;2023-09-08T06:29:34;60.07;42.29;79.50;;
81493;Laerm;70900;51.798;10.954;2023-09-08T06:38:29;55.50;43.39;66.16;;
81493;Laerm;70900;51.798;10.954;2023-09-08T06:41:25;57.02;44.11;69.96;;
81493;Laerm;70900;51.798;10.954;2023-09-08T06:44:11;57.46;43.12;70.93;;
81493;Laerm;70900;51.798;10.954;2023-09-08T06:47:03;55.53;41.59;70.48;;
81493;Laerm;70900;51.798;10.954;2023-09-08T06:50:06;55.96;41.03;71.32;;
81493;Laerm;70900;51.798;10.954;2023-09-08T06:52:47;54.58;43.06;67.21;;
81493;Laerm;70900;51.798;10.954;2023-09-08T06:55:43;58.07;41.67;74.47;;
81493;Laerm;70900;51.798;10.954;2023-09-08T06:58:24;54.32;40.26;66.25;;
81493;Laerm;70900;51.798;10.954;2023-09-08T07:01:05;53.06;42.92;66.20;;
81493;Laerm;70900;51.798;10.954;2023-09-08T07:04:09;54.77;43.44;66.79;;
81493;Laerm;70900;51.798;10.954;2023-09-08T07:06:58;49.78;40.24;63.29;;
81493;Laerm;70900;51.798;10.954;2023-09-08T07:09:50;55.24;41.47;67.99;;
81493;Laerm;70900;51.798;10.954;2023-09-08T07:12:39;55.53;40.97;64.69;;
81493;Laerm;70900;51.798;10.954;2023-09-08T07:15:30;51.39;41.30;64.76;;
81493;Laerm;70900;51.798;10.954;2023-09-08T07:18:15;53.10;41.59;65.41;;
81493;Laerm;70900;51.798;10.954;2023-09-08T07:21:06;51.28;40.46;64.95;;
81493;Laerm;70900;51.798;10.954;2023-09-08T07:23:44;56.06;41.51;72.60;;
81493;Laerm;70900;51.798;10.954;2023-09-08T07:26:30;57.48;41.67;70.21;;
81493;Laerm;70900;51.798;10.954;2023-09-08T07:32:28;55.78;39.57;67.65;;
81493;Laerm;70900;51.798;10.954;2023-09-08T07:35:14;54.81;40.25;71.14;;
81493;Laerm;70900;51.798;10.954;2023-09-08T07:37:52;54.50;40.18;66.35;;
81493;Laerm;70900;51.798;10.954;2023-09-08T07:43:33;56.50;41.01;68.17;;
81493;Laerm;70900;51.798;10.954;2023-09-08T07:46:22;56.81;39.99;71.35;;
81493;Laerm;70900;51.798;10.954;2023-09-08T07:49:12;54.73;38.39;67.65;;
81493;Laerm;70900;51.798;10.954;2023-09-08T07:51:57;54.65;38.68;67.30;;
81493;Laerm;70900;51.798;10.954;2023-09-08T07:55:01;50.81;38.64;62.58;;
81493;Laerm;70900;51.798;10.954;2023-09-08T07:57:57;53.34;38.88;64.45;;
81493;Laerm;70900;51.798;10.954;2023-09-08T08:00:41;56.55;41.03;69.03;;
81493;Laerm;70900;51.798;10.954;2023-09-08T08:03:27;53.73;39.68;63.95;;
81493;Laerm;70900;51.798;10.954;2023-09-08T08:06:15;55.29;39.81;66.06;;
81493;Laerm;70900;51.798;10.954;2023-09-08T08:09:03;54.66;38.61;67.63;;
81493;Laerm;70900;51.798;10.954;2023-09-08T08:11:48;58.42;42.54;67.77;;
81493;Laerm;70900;51.798;10.954;2023-09-08T08:14:34;57.21;41.16;72.44;;
81493;Laerm;70900;51.798;10.954;2023-09-08T08:22:53;54.18;40.70;66.48;;
81493;Laerm;70900;51.798;10.954;2023-09-08T08:25:39;52.04;37.89;67.94;;
81493;Laerm;70900;51.798;10.954;2023-09-08T08:28:32;48.63;37.60;63.66;;
81493;Laerm;70900;51.798;10.954;2023-09-08T08:31:21;53.15;38.27;69.23;;
81493;Laerm;70900;51.798;10.954;2023-09-08T08:34:03;63.68;43.16;77.90;;
81493;Laerm;70900;51.798;10.954;2023-09-08T08:37:06;55.89;39.27;69.34;;
81493;Laerm;70900;51.798;10.954;2023-09-08T08:39:49;55.84;43.49;67.50;;
81493;Laerm;70900;51.798;10.954;2023-09-08T08:42:33;58.64;45.01;66.78;;
81493;Laerm;70900;51.798;10.954;2023-09-08T08:45:24;56.21;44.58;66.50;;
81493;Laerm;70900;51.798;10.954;2023-09-08T08:48:22;52.48;42.13;63.36;;
81493;Laerm;70900;51.798;10.954;2023-09-08T08:51:15;55.48;39.48;67.90;;
81493;Laerm;70900;51.798;10.954;2023-09-08T08:53:52;57.37;46.16;68.93;;
81493;Laerm;70900;51.798;10.954;2023-09-08T08:56:58;56.48;46.11;68.06;;
81493;Laerm;70900;51.798;10.954;2023-09-08T08:59:44;58.41;45.23;66.49;;
81493;Laerm;70900;51.798;10.954;2023-09-08T09:02:43;57.96;46.78;73.41;;
81493;Laerm;70900;51.798;10.954;2023-09-08T09:05:34;56.25;49.55;66.41;;
81493;Laerm;70900;51.798;10.954;2023-09-08T09:11:24;58.26;47.96;71.53;;
81493;Laerm;70900;51.798;10.954;2023-09-08T09:14:07;60.12;44.06;74.66;;
81493;Laerm;70900;51.798;10.954;2023-09-08T09:16:53;56.87;44.26;70.92;;
81493;Laerm;70900;51.798;10.954;2023-09-08T09:19:47;55.98;47.69;69.62;;
81493;Laerm;70900;51.798;10.954;2023-09-08T09:25:24;61.05;48.17;75.79;;
81493;Laerm;70900;51.798;10.954;2023-09-08T09:28:15;57.45;45.89;69.51;;
81493;Laerm;70900;51.798;10.954;2023-09-08T09:31:05;56.69;45.89;68.41;;
81493;Laerm;70900;51.798;10.954;2023-09-08T09:39:57;57.12;47.67;67.03;;
81493;Laerm;70900;51.798;10.954;2023-09-08T09:42:50;58.58;46.71;69.50;;
81493;Laerm;70900;51.798;10.954;2023-09-08T09:45:54;60.88;48.02;76.70;;
81493;Laerm;70900;51.798;10.954;2023-09-08T09:48:36;57.74;48.93;67.98;;
81493;Laerm;70900;51.798;10.954;2023-09-08T09:51:19;56.79;40.33;68.26;;
81493;Laerm;70900;51.798;10.954;2023-09-08T09:54:09;57.61;42.22;67.39;;
81493;Laerm;70900;51.798;10.954;2023-09-08T09:56:55;58.17;50.27;65.06;;
81493;Laerm;70900;51.798;10.954;2023-09-08T09:59:45;57.35;50.28;68.89;;
81493;Laerm;70900;51.798;10.954;2023-09-08T10:02:40;59.70;39.98;76.46;;
81493;Laerm;70900;51.798;10.954;2023-09-08T10:05:26;60.59;52.17;76.57;;
81493;Laerm;70900;51.798;10.954;2023-09-08T10:11:14;58.90;51.54;69.32;;
81493;Laerm;70900;51.798;10.954;2023-09-08T10:13:58;58.56;52.73;66.65;;
81493;Laerm;70900;51.798;10.954;2023-09-08T10:16:42;59.59;53.12;73.92;;
81493;Laerm;70900;51.798;10.954;2023-09-08T10:19:22;57.78;53.21;66.24;;
81493;Laerm;70900;51.798;10.954;2023-09-08T10:22:12;60.39;53.49;72.21;;
81493;Laerm;70900;51.798;10.954;2023-09-08T10:24:56;59.88;54.47;70.80;;
81493;Laerm;70900;51.798;10.954;2023-09-08T10:27:52;59.69;55.01;66.65;;
81493;Laerm;70900;51.798;10.954;2023-09-08T10:30:32;60.07;54.96;69.94;;
81493;Laerm;70900;51.798;10.954;2023-09-08T10:33:28;61.04;46.14;74.60;;
81493;Laerm;70900;51.798;10.954;2023-09-08T10:36:08;56.61;40.82;71.42;;
81493;Laerm;70900;51.798;10.954;2023-09-08T10:38:49;50.73;40.55;62.97;;
81493;Laerm;70900;51.798;10.954;2023-09-08T10:41:26;49.46;41.31;60.35;;
81493;Laerm;70900;51.798;10.954;2023-09-08T10:44:25;56.51;39.36;68.14;;
81493;Laerm;70900;51.798;10.954;2023-09-08T10:47:02;53.82;38.61;63.52;;
81493;Laerm;70900;51.798;10.954;2023-09-08T10:49:48;55.86;39.89;81.90;;
81493;Laerm;70900;51.798;10.954;2023-09-08T10:52:31;55.17;40.45;70.34;;
81493;Laerm;70900;51.798;10.954;2023-09-08T10:58:15;58.01;38.89;70.48;;
81493;Laerm;70900;51.798;10.954;2023-09-08T11:01:24;58.35;39.09;71.26;;
81493;Laerm;70900;51.798;10.954;2023-09-08T11:04:26;56.83;39.74;67.83;;
81493;Laerm;70900;51.798;10.954;2023-09-08T11:10:12;49.72;38.57;63.29;;
81493;Laerm;70900;51.798;10.954;2023-09-08T11:12:58;55.68;38.66;68.17;;
81493;Laerm;70900;51.798;10.954;2023-09-08T11:15:43;61.76;39.96;80.79;;
81493;Laerm;70900;51.798;10.954;2023-09-08T11:18:31;56.19;39.50;68.45;;
81493;Laerm;70900;51.798;10.954;2023-09-08T11:24:06;61.79;41.43;78.41;;
81493;Laerm;70900;51.798;10.954;2023-09-08T11:26:52;52.33;40.36;65.38;;
81493;Laerm;70900;51.798;10.954;2023-09-08T11:29:38;58.24;37.73;77.30;;
81493;Laerm;70900;51.798;10.954;2023-09-08T11:32:28;56.42;41.29;70.20;;
81493;Laerm;70900;51.798;10.954;2023-09-08T11:35:12;58.94;39.39;74.62;;
81493;Laerm;70900;51.798;10.954;2023-09-08T11:40:57;53.00;42.15;66.80;;
81493;Laerm;70900;51.798;10.954;2023-09-08T11:43:43;52.79;42.38;64.93;;
81493;Laerm;70900;51.798;10.954;2023-09-08T11:46:26;55.07;41.99;66.47;;
81493;Laerm;70900;51.798;10.954;2023-09-08T11:49:07;55.10;42.61;66.99;;
81493;Laerm;70900;51.798;10.954;2023-09-08T11:51:42;60.76;41.64;78.05;;
81493;Laerm;70900;51.798;10.954;2023-09-08T11:54:08;53.19;42.83;68.77;;
81493;Laerm;70900;51.798;10.954;2023-09-08T11:56:33;56.67;43.50;68.21;;
81493;Laerm;70900;51.798;10.954;2023-09-08T11:59:02;51.11;42.33;65.49;;
81493;Laerm;70900;51.798;10.954;2023-09-08T12:01:28;66.24;42.87;86.28;;
81493;Laerm;70900;51.798;10.954;2023-09-08T12:03:53;46.97;41.73;57.79;;
81493;Laerm;70900;51.798;10.954;2023-09-08T12:06:27;55.06;42.18;72.67;;
81493;Laerm;70900;51.798;10.954;2023-09-08T12:08:56;55.19;41.90;67.36;;
81493;Laerm;70900;51.798;10.954;2023-09-08T12:11:31;49.94;43.09;63.00;;
81493;Laerm;70900;51.798;10.954;2023-09-08T12:14:00;55.45;42.78;67.19;;
81493;Laerm;70900;51.798;10.954;2023-09-08T12:16:26;54.15;43.02;67.03;;
81493;Laerm;70900;51.798;10.954;2023-09-08T12:18:51;56.25;41.71;67.57;;
81493;Laerm;70900;51.798;10.954;2023-09-08T12:21:18;54.45;41.44;67.19;;
81493;Laerm;70900;51.798;10.954;2023-09-08T12:23:52;54.85;40.65;65.97;;
81493;Laerm;70900;51.798;10.954;2023-09-08T12:26:17;55.25;43.51;66.68;;
81493;Laerm;70900;51.798;10.954;2023-09-08T12:28:43;51.12;41.54;66.90;;
81493;Laerm;70900;51.798;10.954;2023-09-08T12:31:14;56.00;42.44;67.84;;
81493;Laerm;70900;51.798;10.954;2023-09-08T12:33:41;56.26;40.16;74.21;;
81493;Laerm;70900;51.798;10.954;2023-09-08T12:36:17;60.72;41.49;79.60;;
81493;Laerm;70900;51.798;10.954;2023-09-08T12:38:52;56.98;40.55;67.41;;
81493;Laerm;70900;51.798;10.954;2023-09-08T12:41:20;55.57;40.54;67.09;;
81493;Laerm;70900;51.798;10.954;2023-09-08T12:43:47;53.55;42.09;66.93;;
81493;Laerm;70900;51.798;10.954;2023-09-08T12:46:13;55.77;40.79;66.51;;
81493;Laerm;70900;51.798;10.954;2023-09-08T12:48:38;56.00;42.70;70.09;;
81493;Laerm;70900;51.798;10.954;2023-09-08T12:51:03;51.88;40.62;63.53;;
81493;Laerm;70900;51.798;10.954;2023-09-08T12:53:33;56.22;40.44;66.91;;
81493;Laerm;70900;51.798;10.954;2023-09-08T12:55:59;48.60;39.94;64.88;;
81493;Laerm;70900;51.798;10.954;2023-09-08T12:58:25;49.09;38.32;63.11;;
81493;Laerm;70900;51.798;10.954;2023-09-08T13:00:50;55.24;40.38;65.63;;
81493;Laerm;70900;51.798;10.954;2023-09-08T13:03:15;53.57;39.83;67.37;;
81493;Laerm;70900;51.798;10.954;2023-09-08T13:05:41;49.12;40.09;61.51;;
81493;Laerm;70900;51.798;10.954;2023-09-08T13:08:07;49.66;39.52;60.04;;
81493;Laerm;70900;51.798;10.954;2023-09-08T13:10:32;48.68;38.77;62.04;;
81493;Laerm;70900;51.798;10.954;2023-09-08T13:12:58;54.39;37.69;66.01;;
81493;Laerm;70900;51.798;10.954;2023-09-08T13:15:23;57.74;44.72;77.52;;
81493;Laerm;70900;51.798;10.954;2023-09-08T13:17:49;50.52;39.52;61.54;;
81493;Laerm;70900;51.798;10.954;2023-09-08T13:20:14;60.27;41.92;75.86;;
81493;Laerm;70900;51.798;10.954;2023-09-08T13:22:39;55.48;41.25;70.03;;
81493;Laerm;70900;51.798;10.954;2023-09-08T13:25:05;57.39;40.09;73.46;;
81493;Laerm;70900;51.798;10.954;2023-09-08T13:27:30;55.94;40.98;66.69;;
81493;Laerm;70900;51.798;10.954;2023-09-08T13:30:08;55.01;39.42;66.11;;
81493;Laerm;70900;51.798;10.954;2023-09-08T13:32:34;55.65;35.23;72.03;;
81493;Laerm;70900;51.798;10.954;2023-09-08T13:34:59;57.62;35.74;73.59;;
81493;Laerm;70900;51.798;10.954;2023-09-08T13:37:25;55.10;37.62;69.45;;
81493;Laerm;70900;51.798;10.954;2023-09-08T13:39:51;55.51;35.34;68.54;;
81493;Laerm;70900;51.798;10.954;2023-09-08T13:42:16;53.69;35.04;66.89;;
81493;Laerm;70900;51.798;10.954;2023-09-08T13:44:42;54.35;34.71;69.02;;
81493;Laerm;70900;51.798;10.954;2023-09-08T13:47:07;55.09;37.16;67.05;;
81493;Laerm;70900;51.798;10.954;2023-09-08T13:49:33;56.21;35.59;67.10;;
81493;Laerm;70900;51.798;10.954;2023-09-08T13:51:58;54.52;36.40;74.52;;
81493;Laerm;70900;51.798;10.954;2023-09-08T13:54:24;49.83;37.74;63.55;;
81493;Laerm;70900;51.798;10.954;2023-09-08T13:56:57;61.00;40.87;77.12;;
81493;Laerm;70900;51.798;10.954;2023-09-08T13:59:24;56.16;38.14;71.26;;
81493;Laerm;70900;51.798;10.954;2023-09-08T14:01:50;50.31;36.97;65.95;;
81493;Laerm;70900;51.798;10.954;2023-09-08T14:04:15;56.72;37.51;71.07;;
81493;Laerm;70900;51.798;10.954;2023-09-08T14:06:40;53.65;40.98;67.08;;
81493;Laerm;70900;51.798;10.954;2023-09-08T14:09:06;52.26;40.40;63.85;;
81493;Laerm;70900;51.798;10.954;2023-09-08T14:11:32;53.86;39.19;66.46;;
81493;Laerm;70900;51.798;10.954;2023-09-08T14:13:58;52.55;38.38;63.61;;
81493;Laerm;70900;51.798;10.954;2023-09-08T14:16:23;49.35;36.30;65.58;;
81493;Laerm;70900;51.798;10.954;2023-09-08T14:18:48;57.62;38.22;72.72;;
81493;Laerm;70900;51.798;10.954;2023-09-08T14:21:16;54.29;35.64;64.30;;
81493;Laerm;70900;51.798;10.954;2023-09-08T14:23:42;57.13;40.53;69.83;;
81493;Laerm;70900;51.798;10.954;2023-09-08T14:26:08;53.15;38.85;70.65;;
81493;Laerm;70900;51.798;10.954;2023-09-08T14:28:34;55.14;39.66;66.30;;
81493;Laerm;70900;51.798;10.954;2023-09-08T14:30:59;56.07;41.39;66.46;;
81493;Laerm;70900;51.798;10.954;2023-09-08T14:33:25;56.09;40.93;70.16;;
81493;Laerm;70900;51.798;10.954;2023-09-08T14:35:51;56.63;40.86;68.54;;
81493;Laerm;70900;51.798;10.954;2023-09-08T14:38:18;47.11;38.58;60.63;;
81493;Laerm;70900;51.798;10.954;2023-09-08T14:40:44;54.94;40.12;64.96;;
81493;Laerm;70900;51.798;10.954;2023-09-08T14:43:11;56.09;40.56;68.56;;
81493;Laerm;70900;51.798;10.954;2023-09-08T14:45:38;53.55;39.74;63.70;;
81493;Laerm;70900;51.798;10.954;2023-09-08T14:48:03;52.12;39.26;62.24;;
81493;Laerm;70900;51.798;10.954;2023-09-08T14:50:30;55.26;39.93;68.43;;
81493;Laerm;70900;51.798;10.954;2023-09-08T14:52:56;55.17;40.04;69.61;;
81493;Laerm;70900;51.798;10.954;2023-09-08T14:55:21;49.41;39.19;62.95;;
81493;Laerm;70900;51.798;10.954;2023-09-08T14:57:50;52.49;40.75;63.01;;
81493;Laerm;70900;51.798;10.954;2023-09-08T15:00:15;53.31;38.66;66.25;;
81493;Laerm;70900;51.798;10.954;2023-09-08T15:02:40;55.65;39.27;67.33;;
81493;Laerm;70900;51.798;10.954;2023-09-08T15:05:06;56.42;40.81;69.31;;
81493;Laerm;70900;51.798;10.954;2023-09-08T15:07:31;56.43;41.21;64.25;;
81493;Laerm;70900;51.798;10.954;2023-09-08T15:09:56;49.76;39.05;62.19;;
81493;Laerm;70900;51.798;10.954;2023-09-08T15:12:22;53.21;39.13;65.97;;
81493;Laerm;70900;51.798;10.954;2023-09-08T15:14:48;52.45;38.64;65.15;;
81493;Laerm;70900;51.798;10.954;2023-09-08T15:17:13;54.24;39.43;65.44;;
81493;Laerm;70900;51.798;10.954;2023-09-08T15:19:39;56.53;39.81;73.42;;
81493;Laerm;70900;51.798;10.954;2023-09-08T15:22:05;58.53;41.67;75.29;;
81493;Laerm;70900;51.798;10.954;2023-09-08T15:24:31;55.44;41.21;67.09;;
81493;Laerm;70900;51.798;10.954;2023-09-08T15:26:57;51.44;41.16;64.23;;
81493;Laerm;70900;51.798;10.954;2023-09-08T15:29:25;56.03;40.14;70.35;;
81493;Laerm;70900;51.798;10.954;2023-09-08T15:31:50;52.89;39.20;64.65;;
81493;Laerm;70900;51.798;10.954;2023-09-08T15:34:15;58.47;39.53;73.62;;
81493;Laerm;70900;51.798;10.954;2023-09-08T15:36:41;55.12;39.27;68.61;;
81493;Laerm;70900;51.798;10.954;2023-09-08T15:39:06;54.78;41.06;66.52;;
81493;Laerm;70900;51.798;10.954;2023-09-08T15:41:31;54.20;40.18;66.92;;
81493;Laerm;70900;51.798;10.954;2023-09-08T15:43:57;53.28;39.12;67.15;;
81493;Laerm;70900;51.798;10.954;2023-09-08T15:46:22;52.06;40.51;65.23;;
81493;Laerm;70900;51.798;10.954;2023-09-08T15:48:49;56.40;41.32;69.67;;
81493;Laerm;70900;51.798;10.954;2023-09-08T15:51:14;54.40;41.55;67.18;;
81493;Laerm;70900;51.798;10.954;2023-09-08T15:53:41;53.95;40.22;71.28;;
81493;Laerm;70900;51.798;10.954;2023-09-08T15:56:07;55.19;38.57;68.42;;
81493;Laerm;70900;51.798;10.954;2023-09-08T15:58:33;57.68;40.85;73.40;;
81493;Laerm;70900;51.798;10.954;2023-09-08T16:00:58;56.04;41.30;72.32;;
81493;Laerm;70900;51.798;10.954;2023-09-08T16:03:24;57.09;40.84;71.19;;
81493;Laerm;70900;51.798;10.954;2023-09-08T16:05:49;59.03;40.11;73.15;;
81493;Laerm;70900;51.798;10.954;2023-09-08T16:08:14;53.58;39.13;64.88;;
81493;Laerm;70900;51.798;10.954;2023-09-08T16:10:40;57.76;39.07;69.11;;
81493;Laerm;70900;51.798;10.954;2023-09-08T16:13:05;55.42;39.00;66.86;;